createdAt,value
2023-05-05T00:02:24.577Z,11.13
2023-05-05T00:06:28.492Z,11.16
2023-05-05T00:10:32.891Z,11.69
2023-05-05T00:14:35.658Z,11.45
2023-05-05T00:18:38.380Z,11.38
2023-05-05T00:22:41.094Z,11.04
2023-05-05T00:26:45.194Z,11.12
2023-05-05T00:30:47.910Z,10.95
2023-05-05T00:34:50.988Z,11.00
2023-05-05T00:38:54.066Z,10.71
2023-05-05T00:42:59.519Z,11.09
2023-05-05T00:47:02.263Z,10.52
2023-05-05T00:51:08.781Z,10.24
2023-05-05T00:55:11.418Z,10.40
2023-05-05T00:59:15.650Z,10.89
2023-05-05T01:03:18.563Z,10.91
2023-05-05T01:07:28.693Z,10.90
2023-05-05T01:11:33.691Z,10.60
2023-05-05T01:15:43.443Z,10.16
2023-05-05T01:19:56.949Z,9.55
2023-05-05T01:24:28.750Z,9.89
2023-05-05T01:28:56.027Z,10.08
2023-05-05T01:33:03.528Z,10.47
2023-05-05T01:37:09.723Z,9.62
2023-05-05T01:41:18.741Z,9.37
2023-05-05T01:45:23.205Z,9.45
2023-05-05T01:49:27.721Z,9.85
2023-05-05T01:53:30.734Z,9.50
2023-05-05T01:57:34.326Z,9.25
2023-05-05T02:01:40.853Z,9.49
2023-05-05T02:05:45.796Z,9.64
2023-05-05T02:09:49.448Z,9.35
2023-05-05T02:13:52.379Z,9.16
2023-05-05T02:17:55.467Z,9.35
2023-05-05T02:21:59.565Z,9.29
2023-05-05T02:26:06.161Z,9.18
2023-05-05T02:30:11.222Z,9.42
2023-05-05T02:34:15.014Z,9.36
2023-05-05T02:38:18.948Z,9.37
2023-05-05T02:42:23.484Z,8.75
2023-05-05T02:46:26.839Z,8.91
2023-05-05T02:50:29.542Z,9.18
2023-05-05T02:54:34.300Z,9.31
2023-05-05T02:58:43.882Z,9.26
2023-05-05T03:02:53.064Z,8.72
2023-05-05T03:06:59.722Z,8.65
2023-05-05T03:11:07.234Z,8.94
2023-05-05T03:15:11.108Z,9.09
2023-05-05T03:19:15.642Z,9.00
2023-05-05T03:23:20.996Z,9.10
2023-05-05T03:27:25.186Z,8.65
2023-05-05T03:31:28.496Z,8.53
2023-05-05T03:35:31.311Z,8.88
2023-05-05T03:39:34.008Z,8.89
2023-05-05T03:43:39.373Z,8.35
2023-05-05T03:47:42.097Z,7.85
2023-05-05T03:51:44.897Z,8.07
2023-05-05T03:55:47.817Z,8.30
2023-05-05T03:59:52.292Z,8.31
2023-05-05T04:03:55.169Z,8.08
2023-05-05T04:07:58.765Z,8.45
2023-05-05T04:12:01.550Z,8.05
2023-05-05T04:16:06.128Z,7.92
2023-05-05T04:20:09.900Z,8.40
2023-05-05T04:24:12.878Z,8.79
2023-05-05T04:28:15.847Z,8.52
2023-05-05T04:32:20.231Z,8.85
2023-05-05T04:36:22.963Z,8.78
2023-05-05T04:40:26.218Z,8.89
2023-05-05T04:44:28.920Z,8.72
2023-05-05T04:48:34.283Z,9.20
2023-05-05T04:52:37.664Z,8.97
2023-05-05T04:56:40.860Z,9.17
2023-05-05T05:00:43.586Z,9.05
2023-05-05T05:04:47.899Z,10.02
2023-05-05T05:08:50.589Z,10.17
2023-05-05T05:12:53.357Z,10.34
2023-05-05T05:16:56.204Z,10.64
2023-05-05T05:21:00.266Z,11.02
2023-05-05T05:25:02.969Z,10.82
2023-05-05T05:29:05.953Z,10.91
2023-05-05T05:33:08.834Z,10.55
2023-05-05T05:37:12.965Z,10.04
2023-05-05T05:41:15.740Z,10.48
2023-05-05T05:45:18.784Z,11.30
2023-05-05T05:49:21.561Z,10.92
2023-05-05T05:53:25.665Z,11.61
2023-05-05T05:57:28.613Z,11.06
2023-05-05T06:01:31.252Z,11.26
2023-05-05T06:05:33.887Z,11.32
2023-05-05T06:09:38.328Z,12.46
2023-05-05T06:13:41.955Z,13.46
2023-05-05T06:17:44.926Z,13.53
2023-05-05T06:21:47.678Z,14.64
2023-05-05T06:25:53.086Z,13.62
2023-05-05T06:29:55.871Z,13.59
2023-05-05T06:33:58.933Z,13.54
2023-05-05T06:38:01.730Z,13.70
2023-05-05T06:42:05.914Z,13.73
2023-05-05T06:46:08.604Z,14.18
2023-05-05T06:50:12.246Z,15.40
2023-05-05T06:54:15.192Z,15.24
2023-05-05T06:58:19.377Z,16.27
2023-05-05T07:02:23.504Z,16.79
2023-05-05T07:06:27.662Z,17.06
2023-05-05T07:10:31.549Z,17.10
2023-05-05T07:14:35.838Z,17.31
2023-05-05T07:18:38.554Z,17.55
2023-05-05T07:22:41.663Z,17.60
2023-05-05T07:26:44.661Z,17.65
2023-05-05T07:30:49.350Z,17.66
2023-05-05T07:34:51.962Z,17.66
2023-05-05T07:38:55.157Z,17.46
2023-05-05T07:42:57.952Z,17.28
2023-05-05T07:47:02.963Z,17.43
2023-05-05T07:51:05.742Z,17.77
2023-05-05T07:55:08.829Z,17.91
2023-05-05T07:59:11.979Z,17.93
2023-05-05T08:03:16.210Z,17.38
2023-05-05T08:07:19.042Z,17.71
2023-05-05T08:11:21.806Z,17.99
2023-05-05T08:15:24.498Z,18.48
2023-05-05T08:19:29.682Z,18.03
2023-05-05T08:23:32.468Z,18.64
2023-05-05T08:27:35.706Z,19.04
2023-05-05T08:31:38.493Z,19.17
2023-05-05T08:35:42.951Z,19.06
2023-05-05T08:39:45.691Z,19.71
2023-05-05T08:43:49.285Z,19.78
2023-05-05T08:47:52.304Z,18.36
2023-05-05T08:51:58.056Z,18.52
2023-05-05T08:56:02.017Z,19.28
2023-05-05T09:00:05.361Z,19.77
2023-05-05T09:04:09.503Z,20.05
2023-05-05T09:08:13.706Z,19.98
2023-05-05T09:12:18.762Z,20.83
2023-05-05T09:16:22.570Z,20.31
2023-05-05T09:20:25.826Z,20.07
2023-05-05T09:24:30.010Z,19.85
2023-05-05T09:28:32.764Z,20.58
2023-05-05T09:32:49.023Z,20.82
2023-05-05T09:36:51.815Z,20.90
2023-05-05T09:40:55.964Z,20.88
2023-05-05T09:44:59.980Z,20.67
2023-05-05T09:49:23.458Z,21.47
2023-05-05T09:53:27.080Z,21.82
2023-05-05T09:57:33.464Z,20.62
2023-05-05T10:01:36.291Z,21.15
2023-05-05T10:05:50.529Z,21.48
2023-05-05T10:09:53.595Z,22.56
2023-05-05T10:13:58.441Z,22.21
2023-05-05T10:18:07.659Z,21.92
2023-05-05T10:22:11.384Z,21.49
2023-05-05T10:26:15.955Z,22.51
2023-05-05T10:30:24.719Z,22.58
2023-05-05T10:34:32.253Z,22.38
2023-05-05T10:38:35.057Z,23.29
2023-05-05T10:42:38.691Z,21.39
2023-05-05T10:46:44.221Z,21.54
2023-05-05T10:50:51.818Z,21.77
2023-05-05T10:55:02.353Z,20.82
2023-05-05T10:59:05.038Z,21.12
2023-05-05T11:03:34.012Z,20.85
2023-05-05T11:07:37.221Z,22.52
2023-05-05T11:12:02.971Z,23.01
2023-05-05T11:16:06.248Z,21.27
2023-05-05T11:20:11.553Z,21.22
2023-05-05T11:24:29.190Z,20.68
2023-05-05T11:28:32.471Z,20.45
2023-05-05T11:32:35.959Z,21.65
2023-05-05T11:36:41.669Z,21.70
2023-05-05T11:40:46.457Z,21.78
2023-05-05T11:44:49.267Z,21.87
2023-05-05T11:48:52.974Z,21.71
2023-05-05T11:52:57.076Z,21.15
2023-05-05T11:57:02.074Z,21.21
2023-05-05T12:01:07.019Z,21.10
2023-05-05T12:05:10.224Z,21.30
2023-05-05T12:09:17.238Z,21.38
2023-05-05T12:13:20.561Z,21.08
2023-05-05T12:17:24.346Z,21.06
2023-05-05T12:21:27.048Z,20.83
2023-05-05T12:25:38.162Z,20.87
2023-05-05T12:29:43.738Z,21.11
2023-05-05T12:33:46.737Z,20.81
2023-05-05T12:37:49.396Z,20.44
2023-05-05T12:41:53.309Z,20.81
2023-05-05T12:46:08.033Z,20.35
2023-05-05T12:50:11.409Z,20.48
2023-05-05T12:54:14.123Z,20.47
2023-05-05T12:58:18.760Z,20.23
2023-05-05T13:02:22.109Z,20.27
2023-05-05T13:06:27.219Z,19.94
2023-05-05T13:10:31.282Z,19.49
2023-05-05T13:14:36.395Z,19.41
2023-05-05T13:18:45.531Z,18.98
2023-05-05T13:22:48.285Z,18.87
2023-05-05T13:26:51.351Z,18.52
2023-05-05T13:30:56.039Z,18.49
2023-05-05T13:34:59.149Z,18.17
2023-05-05T13:39:02.069Z,18.06
2023-05-05T13:43:04.896Z,17.16
2023-05-05T13:47:09.698Z,16.08
2023-05-05T13:51:12.644Z,15.70
2023-05-05T13:55:15.554Z,16.27
2023-05-05T13:59:18.273Z,16.16
2023-05-05T14:03:23.822Z,15.20
2023-05-05T14:07:26.591Z,15.36
2023-05-05T14:11:29.425Z,15.30
2023-05-05T14:15:32.118Z,15.23
2023-05-05T14:19:36.427Z,15.52
2023-05-05T14:23:39.211Z,15.32
2023-05-05T14:27:41.956Z,15.32
2023-05-05T14:31:44.606Z,15.65
2023-05-05T14:35:49.034Z,14.90
2023-05-05T14:39:52.051Z,14.50
2023-05-05T14:43:54.996Z,14.73
2023-05-05T14:47:58.691Z,14.72
2023-05-05T14:52:03.290Z,14.78
2023-05-05T14:56:06.821Z,15.14
2023-05-05T15:00:10.995Z,15.03
2023-05-05T15:04:13.854Z,15.72
2023-05-05T15:08:19.280Z,15.92
2023-05-05T15:12:22.079Z,15.34
2023-05-05T15:16:24.850Z,15.06
2023-05-05T15:20:28.591Z,15.30
2023-05-05T15:24:32.792Z,15.39
2023-05-05T15:28:35.754Z,15.33
2023-05-05T15:32:38.621Z,15.90
2023-05-05T15:36:41.361Z,15.92
2023-05-05T15:40:48.325Z,16.55
2023-05-05T15:44:53.162Z,16.26
2023-05-05T15:48:55.641Z,16.54
2023-05-05T15:52:59.086Z,15.96
2023-05-05T15:57:03.263Z,15.98
2023-05-05T16:01:06.224Z,16.25
2023-05-05T16:05:10.007Z,16.22
2023-05-05T16:09:13.040Z,15.71
2023-05-05T16:13:17.360Z,16.10
2023-05-05T16:17:21.707Z,16.13
2023-05-05T16:21:25.717Z,15.86
2023-05-05T16:25:29.723Z,15.95
2023-05-05T16:29:33.824Z,16.02
2023-05-05T16:33:40.723Z,15.88
2023-05-05T16:37:43.388Z,16.03
2023-05-05T16:41:46.143Z,15.88
2023-05-05T16:45:50.311Z,16.04
2023-05-05T16:49:53.371Z,15.77
2023-05-05T16:53:56.492Z,16.00
2023-05-05T16:57:59.018Z,15.72
2023-05-05T17:02:03.336Z,15.95
2023-05-05T17:06:06.839Z,15.80
2023-05-05T17:10:11.210Z,15.84
2023-05-05T17:14:14.327Z,15.80
2023-05-05T17:18:20.277Z,16.08
2023-05-05T17:22:22.986Z,15.95
2023-05-05T17:26:25.783Z,15.96
2023-05-05T17:30:28.718Z,16.02
2023-05-05T17:34:32.904Z,16.11
2023-05-05T17:38:35.598Z,16.09
2023-05-05T17:42:38.986Z,15.99
2023-05-05T17:46:42.954Z,15.70
2023-05-05T17:50:48.135Z,15.55
2023-05-05T17:54:51.634Z,15.50
2023-05-05T17:58:54.918Z,15.41
2023-05-05T18:02:57.699Z,15.32
2023-05-05T18:07:01.922Z,15.18
2023-05-05T18:11:04.606Z,14.97
2023-05-05T18:15:09.144Z,14.34
2023-05-05T18:19:12.053Z,13.74
2023-05-05T18:23:16.388Z,13.48
2023-05-05T18:27:19.300Z,13.92
2023-05-05T18:31:25.169Z,13.81
2023-05-05T18:35:28.520Z,13.77
2023-05-05T18:39:32.451Z,13.37
2023-05-05T18:43:35.104Z,13.06
2023-05-05T18:47:38.948Z,13.03
2023-05-05T18:51:41.738Z,13.52
2023-05-05T18:55:47.026Z,13.62
2023-05-05T18:59:50.522Z,13.18
2023-05-05T19:03:53.248Z,13.25
2023-05-05T19:07:55.909Z,13.02
2023-05-05T19:12:00.407Z,12.95
2023-05-05T19:16:03.495Z,12.94
2023-05-05T19:20:07.648Z,12.52
2023-05-05T19:24:10.993Z,12.63
2023-05-05T19:28:15.167Z,12.29
2023-05-05T19:32:18.116Z,12.08
2023-05-05T19:36:20.996Z,12.54
2023-05-05T19:40:24.053Z,12.45
2023-05-05T19:44:28.092Z,12.07
2023-05-05T19:48:31.472Z,11.67
2023-05-05T19:52:36.533Z,11.67
2023-05-05T19:56:39.568Z,11.32
2023-05-05T20:00:43.840Z,11.56
2023-05-05T20:04:46.542Z,11.70
2023-05-05T20:08:49.265Z,10.99
2023-05-05T20:12:52.723Z,11.33
2023-05-05T20:16:56.963Z,11.26
2023-05-05T20:21:02.448Z,11.09
2023-05-05T20:25:05.642Z,10.70
2023-05-05T20:29:08.689Z,10.30
2023-05-05T20:33:12.913Z,10.62
2023-05-05T20:37:15.802Z,10.84
2023-05-05T20:41:18.501Z,10.84
2023-05-05T20:45:21.479Z,10.92
2023-05-05T20:49:25.719Z,10.58
2023-05-05T20:53:28.389Z,10.72
2023-05-05T20:57:31.095Z,9.89
2023-05-05T21:01:34.570Z,9.90
2023-05-05T21:05:39.934Z,9.75
2023-05-05T21:09:42.813Z,10.14
2023-05-05T21:13:45.473Z,10.19
2023-05-05T21:17:48.309Z,10.03
2023-05-05T21:21:53.737Z,9.90
2023-05-05T21:25:56.576Z,9.52
2023-05-05T21:29:59.279Z,9.25
2023-05-05T21:34:02.628Z,9.26
2023-05-05T21:38:06.965Z,9.58
2023-05-05T21:42:09.646Z,9.41
2023-05-05T21:46:12.941Z,9.21
2023-05-05T21:50:15.856Z,9.42
2023-05-05T21:54:20.342Z,8.68
2023-05-05T21:58:24.672Z,9.13
2023-05-05T22:02:27.761Z,9.60
2023-05-05T22:06:30.685Z,9.62
2023-05-05T22:10:35.099Z,9.67
2023-05-05T22:14:38.209Z,8.87
2023-05-05T22:18:41.291Z,8.81
2023-05-05T22:22:44.377Z,9.42
2023-05-05T22:26:48.684Z,9.45
2023-05-05T22:30:51.619Z,8.65
2023-05-05T22:34:54.490Z,8.59
2023-05-05T22:38:57.221Z,9.04
2023-05-05T22:43:01.755Z,9.39
2023-05-05T22:47:04.780Z,9.42
2023-05-05T22:51:08.008Z,9.11
2023-05-05T22:55:12.744Z,8.79
2023-05-05T22:59:17.125Z,9.27
2023-05-05T23:03:20.149Z,9.47
2023-05-05T23:07:22.882Z,8.51
2023-05-05T23:11:26.963Z,8.42
2023-05-05T23:15:31.202Z,8.93
2023-05-05T23:19:34.806Z,8.94
2023-05-05T23:23:37.497Z,9.06
2023-05-05T23:27:41.295Z,8.82
2023-05-05T23:31:46.262Z,8.83
2023-05-05T23:35:49.014Z,8.94
2023-05-05T23:39:51.930Z,9.20
2023-05-05T23:43:54.904Z,8.62
2023-05-05T23:47:59.234Z,8.26
2023-05-05T23:52:01.968Z,8.76
2023-05-05T23:56:04.852Z,8.21
